Rijkevorsel, Belgium
Current Conditions -  °F | °C
As of 10:25 AM on Monday 20 Oct 2014 (Local Time) from EHGR Reporting Station
Overcast Overcast  
Wind Chill: 59°   Ceiling: 4400
Heat Index: 59°   Visibility: 6mi
Dew Point: 54°   Wind: 10mph
Humidity: 82%   Direction: 230°SW
Pressure: 30"   Gusts: NA
Location:  51.35°N, 4.76°E
Report Text: EHGR 200825Z AUTO 23009KT 9999 FEW014 SCT038 OVC044 15/12 Q1016 BLU 23010KT 9999 FEW015 BKN025
Loading
Personal Weather Stations






























Interactive Weather Map New forecast layout! Learn more

10-Day Weather Forecast

Advertisements
Track Severe Weather on mobile